MPH841 OBBI-OMDB
Flight info
| Callsign | MPH841 |
|---|---|
| Flight time | 0h 54m |
| Altitude | 25000 |
| Route | BHR N697 SODAK P559 VUTEB |
| Aircraft | MD11/H-SDE1E2E3FGHIJ2J3J4J5M1RWXY/LB1D1 |
Departure
| Time | 2026-05-08 18:13 |
|---|---|
| Airport | Bahrain International Airport (OBBI) |
Arrival
| Time | 2026-05-08 19:07 |
|---|---|
| Airport | Dubai International Airport (OMDB) |
| Time | Latitude | Longitude | Altitude | Speed | Heading |
|---|---|---|---|---|---|
| 2026-05-08 17:43 | 26.27449 | 50.62008 | 33 ft | 0 kts | 212° |
| 2026-05-08 17:57 | 26.27450 | 50.62009 | 33 ft | 1 kts | 212° |
| 2026-05-08 17:58 | 26.27470 | 50.62023 | 31 ft | 4 kts | 212° |
| 2026-05-08 17:58 | 26.27491 | 50.62038 | 29 ft | 2 kts | 213° |
| 2026-05-08 17:58 | 26.27511 | 50.62050 | 31 ft | 4 kts | 182° |
| 2026-05-08 17:58 | 26.27529 | 50.62047 | 30 ft | 4 kts | 133° |
| 2026-05-08 17:59 | 26.27544 | 50.62023 | 31 ft | 3 kts | 122° |
| 2026-05-08 17:59 | 26.27547 | 50.62019 | 30 ft | 0 kts | 122° |
| 2026-05-08 18:01 | 26.27544 | 50.62023 | 31 ft | 3 kts | 122° |
| 2026-05-08 18:02 | 26.27509 | 50.62086 | 32 ft | 15 kts | 119° |
| 2026-05-08 18:02 | 26.27493 | 50.62157 | 32 ft | 14 kts | 92° |
| 2026-05-08 18:02 | 26.27452 | 50.62391 | 31 ft | 39 kts | 116° |
| 2026-05-08 18:02 | 26.27300 | 50.62665 | 32 ft | 41 kts | 123° |
| 2026-05-08 18:03 | 26.27140 | 50.62935 | 31 ft | 41 kts | 125° |
| 2026-05-08 18:03 | 26.26981 | 50.63195 | 27 ft | 41 kts | 124° |
| 2026-05-08 18:03 | 26.26825 | 50.63456 | 28 ft | 40 kts | 123° |
| 2026-05-08 18:03 | 26.26674 | 50.63715 | 30 ft | 39 kts | 123° |
| 2026-05-08 18:04 | 26.26527 | 50.63971 | 31 ft | 39 kts | 122° |
| 2026-05-08 18:04 | 26.26382 | 50.64226 | 29 ft | 39 kts | 122° |
| 2026-05-08 18:04 | 26.26237 | 50.64482 | 28 ft | 39 kts | 122° |
| 2026-05-08 18:04 | 26.26129 | 50.64670 | 29 ft | 22 kts | 122° |
| 2026-05-08 18:05 | 26.26065 | 50.64782 | 29 ft | 7 kts | 123° |
| 2026-05-08 18:05 | 26.26063 | 50.64785 | 30 ft | 0 kts | 123° |
| 2026-05-08 18:07 | 26.26034 | 50.64846 | 29 ft | 12 kts | 109° |
| 2026-05-08 18:07 | 26.26027 | 50.64898 | 30 ft | 2 kts | 81° |
| 2026-05-08 18:07 | 26.26029 | 50.64909 | 30 ft | 1 kts | 77° |
| 2026-05-08 18:07 | 26.26029 | 50.64910 | 30 ft | 0 kts | 75° |
| 2026-05-08 18:08 | 26.26029 | 50.64911 | 30 ft | 0 kts | 75° |
| 2026-05-08 18:08 | 26.26030 | 50.64914 | 30 ft | 1 kts | 75° |
| 2026-05-08 18:08 | 26.26032 | 50.64920 | 30 ft | 1 kts | 75° |
| 2026-05-08 18:08 | 26.26034 | 50.64928 | 30 ft | 1 kts | 75° |
| 2026-05-08 18:09 | 26.26035 | 50.64935 | 30 ft | 0 kts | 75° |
| 2026-05-08 18:10 | 26.26038 | 50.64940 | 29 ft | 6 kts | 62° |
| 2026-05-08 18:10 | 26.26126 | 50.64987 | 30 ft | 13 kts | 345° |
| 2026-05-08 18:10 | 26.26209 | 50.64877 | 29 ft | 17 kts | 303° |
| 2026-05-08 18:11 | 26.26248 | 50.64813 | 28 ft | 0 kts | 301° |
| 2026-05-08 18:12 | 26.26303 | 50.64713 | 28 ft | 55 kts | 302° |
| 2026-05-08 18:12 | 26.26681 | 50.64061 | 28 ft | 141 kts | 303° |
| 2026-05-08 18:12 | 26.27270 | 50.62948 | 314 ft | 181 kts | 297° |
| 2026-05-08 18:13 | 26.27841 | 50.61635 | 1108 ft | 193 kts | 298° |
| 2026-05-08 18:13 | 26.28454 | 50.60304 | 2019 ft | 192 kts | 309° |
| 2026-05-08 18:13 | 26.29472 | 50.59449 | 2974 ft | 180 kts | 344° |
| 2026-05-08 18:13 | 26.30694 | 50.59614 | 3883 ft | 188 kts | 24° |
| 2026-05-08 18:14 | 26.31705 | 50.60647 | 4705 ft | 212 kts | 46° |
| 2026-05-08 18:14 | 26.32695 | 50.62037 | 5250 ft | 242 kts | 46° |
| 2026-05-08 18:14 | 26.33826 | 50.63500 | 6027 ft | 255 kts | 45° |
| 2026-05-08 18:14 | 26.35032 | 50.65011 | 6733 ft | 270 kts | 47° |
| 2026-05-08 18:15 | 26.36205 | 50.66723 | 7259 ft | 283 kts | 51° |
| 2026-05-08 18:15 | 26.37363 | 50.68523 | 8052 ft | 288 kts | 51° |
| 2026-05-08 18:15 | 26.38549 | 50.70365 | 8828 ft | 295 kts | 52° |
| 2026-05-08 18:15 | 26.39769 | 50.72242 | 9640 ft | 302 kts | 52° |
| 2026-05-08 18:16 | 26.41037 | 50.74175 | 10127 ft | 322 kts | 52° |
| 2026-05-08 18:16 | 26.42412 | 50.76255 | 10257 ft | 353 kts | 52° |
| 2026-05-08 18:16 | 26.43929 | 50.78541 | 10496 ft | 377 kts | 52° |
| 2026-05-08 18:16 | 26.45525 | 50.80890 | 11265 ft | 382 kts | 48° |
| 2026-05-08 18:17 | 26.47408 | 50.82997 | 12121 ft | 384 kts | 40° |
| 2026-05-08 18:17 | 26.49478 | 50.84912 | 12991 ft | 389 kts | 37° |
| 2026-05-08 18:17 | 26.51636 | 50.86771 | 13828 ft | 394 kts | 37° |
| 2026-05-08 18:17 | 26.53836 | 50.88634 | 14571 ft | 400 kts | 37° |
| 2026-05-08 18:18 | 26.56064 | 50.90527 | 15321 ft | 406 kts | 37° |
| 2026-05-08 18:18 | 26.58327 | 50.92462 | 16054 ft | 413 kts | 37° |
| 2026-05-08 18:18 | 26.60614 | 50.94428 | 16873 ft | 417 kts | 37° |
| 2026-05-08 18:18 | 26.62927 | 50.96424 | 17699 ft | 423 kts | 37° |
| 2026-05-08 18:19 | 26.65273 | 50.98454 | 18506 ft | 429 kts | 37° |
| 2026-05-08 18:19 | 26.67650 | 51.00514 | 19281 ft | 435 kts | 37° |
| 2026-05-08 18:19 | 26.70029 | 51.02580 | 20075 ft | 441 kts | 37° |
| 2026-05-08 18:19 | 26.72469 | 51.04701 | 20840 ft | 448 kts | 37° |
| 2026-05-08 18:20 | 26.74948 | 51.06858 | 21558 ft | 454 kts | 37° |
| 2026-05-08 18:20 | 26.77450 | 51.09063 | 22210 ft | 461 kts | 39° |
| 2026-05-08 18:20 | 26.79782 | 51.11551 | 22840 ft | 467 kts | 50° |
| 2026-05-08 18:20 | 26.81606 | 51.14563 | 23439 ft | 470 kts | 65° |
| 2026-05-08 18:21 | 26.82734 | 51.18016 | 23652 ft | 476 kts | 81° |
| 2026-05-08 18:21 | 26.83039 | 51.21676 | 23996 ft | 470 kts | 96° |
| 2026-05-08 18:21 | 26.82527 | 51.25251 | 24326 ft | 462 kts | 111° |
| 2026-05-08 18:21 | 26.81243 | 51.28507 | 24659 ft | 455 kts | 126° |
| 2026-05-08 18:22 | 26.79311 | 51.31278 | 24819 ft | 453 kts | 139° |
| 2026-05-08 18:22 | 26.76992 | 51.33653 | 25164 ft | 451 kts | 144° |
| 2026-05-08 18:22 | 26.74587 | 51.35916 | 25684 ft | 453 kts | 144° |
| 2026-05-08 18:22 | 26.72197 | 51.38237 | 26156 ft | 456 kts | 143° |
| 2026-05-08 18:23 | 26.69843 | 51.40656 | 26605 ft | 460 kts | 142° |
| 2026-05-08 18:23 | 26.67554 | 51.43182 | 27027 ft | 466 kts | 137° |
| 2026-05-08 18:23 | 26.65627 | 51.46079 | 27444 ft | 478 kts | 125° |
| 2026-05-08 18:23 | 26.64161 | 51.49519 | 27835 ft | 488 kts | 116° |
| 2026-05-08 18:24 | 26.63039 | 51.53072 | 28207 ft | 494 kts | 113° |
| 2026-05-08 18:24 | 26.62008 | 51.56740 | 28581 ft | 498 kts | 112° |
| 2026-05-08 18:24 | 26.60965 | 51.60454 | 28947 ft | 501 kts | 113° |
| 2026-05-08 18:24 | 26.59880 | 51.64160 | 29315 ft | 503 kts | 114° |
| 2026-05-08 18:25 | 26.58744 | 51.67875 | 29686 ft | 505 kts | 115° |
| 2026-05-08 18:25 | 26.57571 | 51.71589 | 30034 ft | 508 kts | 115° |
| 2026-05-08 18:25 | 26.56371 | 51.75308 | 30353 ft | 511 kts | 116° |
| 2026-05-08 18:25 | 26.55156 | 51.79045 | 30718 ft | 512 kts | 116° |
| 2026-05-08 18:26 | 26.54002 | 51.82591 | 31106 ft | 512 kts | 116° |
| 2026-05-08 18:26 | 26.53721 | 51.83453 | 31206 ft | 512 kts | 116° |
| 2026-05-08 18:27 | 26.52524 | 51.87127 | 31603 ft | 512 kts | 116° |
| 2026-05-08 18:27 | 26.52124 | 51.88343 | 31733 ft | 512 kts | 116° |
| 2026-05-08 18:27 | 26.50058 | 51.94586 | 32379 ft | 512 kts | 116° |
| 2026-05-08 18:27 | 26.48819 | 51.98309 | 32769 ft | 512 kts | 116° |
| 2026-05-08 18:28 | 26.47578 | 52.02035 | 33143 ft | 512 kts | 116° |
| 2026-05-08 18:28 | 26.46338 | 52.05756 | 33506 ft | 512 kts | 116° |
| 2026-05-08 18:28 | 26.45110 | 52.09441 | 33851 ft | 512 kts | 116° |
| 2026-05-08 18:28 | 26.43871 | 52.13157 | 34163 ft | 511 kts | 116° |
| 2026-05-08 18:29 | 26.42628 | 52.16873 | 34487 ft | 510 kts | 116° |
| 2026-05-08 18:29 | 26.41387 | 52.20578 | 34747 ft | 511 kts | 116° |
| 2026-05-08 18:29 | 26.39302 | 52.26789 | 34843 ft | 516 kts | 116° |
| 2026-05-08 18:30 | 26.36788 | 52.34286 | 34851 ft | 516 kts | 116° |
| 2026-05-08 18:30 | 26.34173 | 52.41714 | 34851 ft | 513 kts | 118° |
| 2026-05-08 18:31 | 26.31372 | 52.49027 | 34843 ft | 513 kts | 119° |
| 2026-05-08 18:31 | 26.28542 | 52.56324 | 34841 ft | 512 kts | 119° |
| 2026-05-08 18:32 | 26.25727 | 52.63619 | 34844 ft | 512 kts | 118° |
| 2026-05-08 18:32 | 26.22924 | 52.70912 | 34841 ft | 512 kts | 118° |
| 2026-05-08 18:33 | 26.20132 | 52.78202 | 34838 ft | 511 kts | 118° |
| 2026-05-08 18:33 | 26.17343 | 52.85486 | 34836 ft | 511 kts | 118° |
| 2026-05-08 18:34 | 26.14555 | 52.92754 | 34828 ft | 510 kts | 118° |
| 2026-05-08 18:34 | 26.11764 | 53.00015 | 34835 ft | 510 kts | 118° |
| 2026-05-08 18:35 | 26.09009 | 53.07288 | 34826 ft | 510 kts | 117° |
| 2026-05-08 18:35 | 26.06341 | 53.14538 | 34822 ft | 510 kts | 117° |
| 2026-05-08 18:36 | 26.03664 | 53.21845 | 34826 ft | 509 kts | 117° |
| 2026-05-08 18:36 | 26.00982 | 53.29139 | 34823 ft | 509 kts | 117° |
| 2026-05-08 18:37 | 25.98297 | 53.36416 | 34543 ft | 507 kts | 117° |
| 2026-05-08 18:37 | 25.96964 | 53.40027 | 34222 ft | 504 kts | 117° |
| 2026-05-08 18:37 | 25.95632 | 53.43629 | 33799 ft | 504 kts | 117° |
| 2026-05-08 18:38 | 25.94294 | 53.47240 | 33196 ft | 505 kts | 117° |
| 2026-05-08 18:38 | 25.92978 | 53.50861 | 32640 ft | 506 kts | 116° |
| 2026-05-08 18:38 | 25.91694 | 53.54510 | 32086 ft | 507 kts | 115° |
| 2026-05-08 18:38 | 25.90429 | 53.58170 | 31537 ft | 509 kts | 115° |
| 2026-05-08 18:39 | 25.89166 | 53.61851 | 30989 ft | 510 kts | 115° |
| 2026-05-08 18:39 | 25.87902 | 53.65541 | 30455 ft | 511 kts | 115° |
| 2026-05-08 18:39 | 25.86652 | 53.69182 | 29883 ft | 513 kts | 115° |
| 2026-05-08 18:39 | 25.85375 | 53.72882 | 29187 ft | 513 kts | 115° |
| 2026-05-08 18:40 | 25.84100 | 53.76568 | 28545 ft | 508 kts | 115° |
| 2026-05-08 18:40 | 25.82837 | 53.80212 | 27929 ft | 502 kts | 115° |
| 2026-05-08 18:40 | 25.81591 | 53.83804 | 27316 ft | 496 kts | 115° |
| 2026-05-08 18:40 | 25.80356 | 53.87359 | 26723 ft | 490 kts | 114° |
| 2026-05-08 18:41 | 25.79134 | 53.90872 | 26137 ft | 485 kts | 114° |
| 2026-05-08 18:41 | 25.77928 | 53.94337 | 25560 ft | 479 kts | 114° |
| 2026-05-08 18:41 | 25.76732 | 53.97772 | 24981 ft | 474 kts | 114° |
| 2026-05-08 18:41 | 25.75572 | 54.01169 | 24414 ft | 469 kts | 113° |
| 2026-05-08 18:42 | 25.74484 | 54.04556 | 23832 ft | 464 kts | 112° |
| 2026-05-08 18:42 | 25.73444 | 54.07918 | 23199 ft | 458 kts | 111° |
| 2026-05-08 18:42 | 25.72428 | 54.11250 | 22544 ft | 452 kts | 111° |
| 2026-05-08 18:42 | 25.71430 | 54.14531 | 21932 ft | 446 kts | 111° |
| 2026-05-08 18:43 | 25.70453 | 54.17736 | 21359 ft | 441 kts | 111° |
| 2026-05-08 18:43 | 25.69473 | 54.20936 | 20787 ft | 436 kts | 111° |
| 2026-05-08 18:43 | 25.68497 | 54.24111 | 20220 ft | 431 kts | 111° |
| 2026-05-08 18:43 | 25.67532 | 54.27246 | 19670 ft | 426 kts | 110° |
| 2026-05-08 18:44 | 25.66580 | 54.30332 | 19126 ft | 422 kts | 110° |
| 2026-05-08 18:44 | 25.65634 | 54.33393 | 18587 ft | 417 kts | 110° |
| 2026-05-08 18:44 | 25.64699 | 54.36415 | 18044 ft | 412 kts | 110° |
| 2026-05-08 18:44 | 25.63774 | 54.39406 | 17450 ft | 407 kts | 110° |
| 2026-05-08 18:45 | 25.62861 | 54.42362 | 16904 ft | 404 kts | 110° |
| 2026-05-08 18:45 | 25.61956 | 54.45292 | 16372 ft | 401 kts | 110° |
| 2026-05-08 18:45 | 25.61056 | 54.48206 | 15853 ft | 399 kts | 111° |
| 2026-05-08 18:45 | 25.60161 | 54.51099 | 15338 ft | 396 kts | 111° |
| 2026-05-08 18:46 | 25.59271 | 54.53977 | 14841 ft | 393 kts | 111° |
| 2026-05-08 18:46 | 25.58401 | 54.56836 | 14316 ft | 390 kts | 109° |
| 2026-05-08 18:46 | 25.57947 | 54.59801 | 13823 ft | 393 kts | 94° |
| 2026-05-08 18:46 | 25.58077 | 54.62821 | 13283 ft | 393 kts | 86° |
| 2026-05-08 18:47 | 25.58451 | 54.65816 | 12843 ft | 390 kts | 83° |
| 2026-05-08 18:47 | 25.58889 | 54.68777 | 12629 ft | 386 kts | 83° |
| 2026-05-08 18:47 | 25.59311 | 54.71630 | 12510 ft | 364 kts | 83° |
| 2026-05-08 18:47 | 25.59693 | 54.74317 | 12388 ft | 343 kts | 83° |
| 2026-05-08 18:48 | 25.60033 | 54.76828 | 12267 ft | 324 kts | 84° |
| 2026-05-08 18:48 | 25.60348 | 54.79234 | 12146 ft | 307 kts | 84° |
| 2026-05-08 18:48 | 25.60640 | 54.81511 | 12017 ft | 291 kts | 84° |
| 2026-05-08 18:48 | 25.60919 | 54.83724 | 11911 ft | 292 kts | 84° |
| 2026-05-08 18:49 | 25.61047 | 54.85951 | 11773 ft | 287 kts | 100° |
| 2026-05-08 18:49 | 25.60562 | 54.88068 | 11731 ft | 284 kts | 112° |
| 2026-05-08 18:49 | 25.59836 | 54.90101 | 11668 ft | 283 kts | 116° |
| 2026-05-08 18:49 | 25.59062 | 54.92105 | 11616 ft | 283 kts | 116° |
| 2026-05-08 18:50 | 25.58279 | 54.94110 | 11559 ft | 283 kts | 116° |
| 2026-05-08 18:50 | 25.57498 | 54.96112 | 11494 ft | 283 kts | 116° |
| 2026-05-08 18:50 | 25.56720 | 54.98114 | 11420 ft | 284 kts | 116° |
| 2026-05-08 18:50 | 25.55935 | 55.00136 | 11030 ft | 286 kts | 116° |
| 2026-05-08 18:51 | 25.55148 | 55.02130 | 10791 ft | 278 kts | 118° |
| 2026-05-08 18:51 | 25.54254 | 55.04034 | 10759 ft | 279 kts | 121° |
| 2026-05-08 18:51 | 25.53307 | 55.05910 | 10758 ft | 280 kts | 122° |
| 2026-05-08 18:51 | 25.52346 | 55.07787 | 10761 ft | 280 kts | 122° |
| 2026-05-08 18:52 | 25.51394 | 55.09640 | 10759 ft | 280 kts | 122° |
| 2026-05-08 18:52 | 25.50432 | 55.11515 | 10755 ft | 280 kts | 122° |
| 2026-05-08 18:52 | 25.49469 | 55.13389 | 10756 ft | 280 kts | 122° |
| 2026-05-08 18:52 | 25.48513 | 55.15251 | 10755 ft | 280 kts | 122° |
| 2026-05-08 18:53 | 25.47548 | 55.17130 | 10755 ft | 281 kts | 122° |
| 2026-05-08 18:53 | 25.46555 | 55.18984 | 10750 ft | 280 kts | 127° |
| 2026-05-08 18:53 | 25.45369 | 55.20678 | 10749 ft | 274 kts | 132° |
| 2026-05-08 18:53 | 25.44144 | 55.22241 | 10738 ft | 265 kts | 134° |
| 2026-05-08 18:54 | 25.42917 | 55.23767 | 10739 ft | 265 kts | 134° |
| 2026-05-08 18:54 | 25.41723 | 55.25246 | 10738 ft | 266 kts | 134° |
| 2026-05-08 18:54 | 25.40495 | 55.26767 | 10740 ft | 265 kts | 134° |
| 2026-05-08 18:54 | 25.39264 | 55.28292 | 10740 ft | 265 kts | 134° |
| 2026-05-08 18:55 | 25.36811 | 55.31335 | 10739 ft | 265 kts | 134° |
| 2026-05-08 18:55 | 25.35614 | 55.32893 | 10619 ft | 268 kts | 128° |
| 2026-05-08 18:55 | 25.34553 | 55.34614 | 10185 ft | 273 kts | 124° |
| 2026-05-08 18:56 | 25.33542 | 55.36408 | 9700 ft | 277 kts | 123° |
| 2026-05-08 18:56 | 25.32529 | 55.38240 | 9159 ft | 282 kts | 123° |
| 2026-05-08 18:56 | 25.31526 | 55.40060 | 8644 ft | 280 kts | 123° |
| 2026-05-08 18:56 | 25.30514 | 55.41893 | 8149 ft | 282 kts | 123° |
| 2026-05-08 18:57 | 25.29491 | 55.43745 | 7651 ft | 283 kts | 122° |
| 2026-05-08 18:57 | 25.28798 | 55.44997 | 7369 ft | 283 kts | 122° |
| 2026-05-08 18:57 | 25.27454 | 55.47429 | 6852 ft | 270 kts | 122° |
| 2026-05-08 18:57 | 25.26512 | 55.49128 | 6765 ft | 252 kts | 122° |
| 2026-05-08 18:58 | 25.25592 | 55.50781 | 6749 ft | 252 kts | 122° |
| 2026-05-08 18:58 | 25.24673 | 55.52433 | 6765 ft | 252 kts | 122° |
| 2026-05-08 18:58 | 25.23751 | 55.54088 | 6754 ft | 252 kts | 122° |
| 2026-05-08 18:58 | 25.22833 | 55.55737 | 6747 ft | 252 kts | 122° |
| 2026-05-08 18:59 | 25.21912 | 55.57391 | 6764 ft | 253 kts | 122° |
| 2026-05-08 18:59 | 25.20992 | 55.59045 | 6749 ft | 252 kts | 122° |
| 2026-05-08 18:59 | 25.20083 | 55.60678 | 6741 ft | 253 kts | 122° |
| 2026-05-08 18:59 | 25.19162 | 55.62337 | 6718 ft | 255 kts | 122° |
| 2026-05-08 19:00 | 25.18544 | 55.63454 | 6459 ft | 259 kts | 122° |
| 2026-05-08 19:00 | 25.17077 | 55.65544 | 5893 ft | 256 kts | 143° |
| 2026-05-08 19:00 | 25.15520 | 55.66256 | 5489 ft | 238 kts | 177° |
| 2026-05-08 19:00 | 25.13930 | 55.65926 | 5117 ft | 233 kts | 206° |
| 2026-05-08 19:01 | 25.12537 | 55.65026 | 4756 ft | 232 kts | 222° |
| 2026-05-08 19:01 | 25.11597 | 55.63633 | 4400 ft | 225 kts | 251° |
| 2026-05-08 19:01 | 25.11479 | 55.61967 | 4063 ft | 215 kts | 285° |
| 2026-05-08 19:01 | 25.12050 | 55.60503 | 3756 ft | 203 kts | 297° |
| 2026-05-08 19:02 | 25.12707 | 55.59159 | 3446 ft | 197 kts | 299° |
| 2026-05-08 19:02 | 25.13404 | 55.57866 | 3174 ft | 195 kts | 301° |
| 2026-05-08 19:02 | 25.14113 | 55.56593 | 2887 ft | 193 kts | 301° |
| 2026-05-08 19:02 | 25.14781 | 55.55321 | 2600 ft | 191 kts | 298° |
| 2026-05-08 19:03 | 25.15466 | 55.54068 | 2363 ft | 191 kts | 303° |
| 2026-05-08 19:03 | 25.16191 | 55.52849 | 2105 ft | 189 kts | 304° |
| 2026-05-08 19:03 | 25.16886 | 55.51611 | 1855 ft | 187 kts | 301° |
| 2026-05-08 19:03 | 25.17552 | 55.50399 | 1798 ft | 184 kts | 301° |
| 2026-05-08 19:04 | 25.18211 | 55.49205 | 1825 ft | 181 kts | 301° |
| 2026-05-08 19:04 | 25.18857 | 55.48033 | 1773 ft | 182 kts | 301° |
| 2026-05-08 19:04 | 25.19512 | 55.46849 | 1529 ft | 178 kts | 301° |
| 2026-05-08 19:04 | 25.20148 | 55.45701 | 1282 ft | 167 kts | 301° |
| 2026-05-08 19:05 | 25.20731 | 55.44651 | 1085 ft | 158 kts | 301° |
| 2026-05-08 19:05 | 25.21290 | 55.43615 | 888 ft | 157 kts | 298° |
| 2026-05-08 19:05 | 25.21850 | 55.42574 | 664 ft | 159 kts | 300° |
| 2026-05-08 19:05 | 25.22442 | 55.41529 | 447 ft | 162 kts | 302° |
| 2026-05-08 19:06 | 25.23053 | 55.40471 | 277 ft | 165 kts | 299° |
| 2026-05-08 19:06 | 25.23642 | 55.39382 | 91 ft | 166 kts | 299° |
| 2026-05-08 19:06 | 25.24186 | 55.38393 | 39 ft | 129 kts | 302° |
| 2026-05-08 19:06 | 25.24600 | 55.37671 | 36 ft | 99 kts | 301° |
| 2026-05-08 19:07 | 25.24918 | 55.37089 | 37 ft | 76 kts | 302° |
| 2026-05-08 19:07 | 25.25023 | 55.36701 | 33 ft | 34 kts | 272° |
| 2026-05-08 19:07 | 25.25025 | 55.36637 | 32 ft | 0 kts | 272° |
| 2026-05-08 19:08 | 25.25025 | 55.36635 | 32 ft | 1 kts | 272° |
| 2026-05-08 19:08 | 25.25025 | 55.36620 | 31 ft | 4 kts | 272° |
| 2026-05-08 19:08 | 25.25031 | 55.36500 | 30 ft | 31 kts | 278° |
| 2026-05-08 19:09 | 25.25138 | 55.36210 | 30 ft | 44 kts | 305° |
| 2026-05-08 19:09 | 25.25291 | 55.35953 | 29 ft | 38 kts | 302° |
| 2026-05-08 19:09 | 25.25393 | 55.35777 | 29 ft | 25 kts | 302° |
| 2026-05-08 19:09 | 25.25484 | 55.35618 | 29 ft | 24 kts | 302° |
| 2026-05-08 19:10 | 25.25571 | 55.35464 | 29 ft | 23 kts | 302° |
| 2026-05-08 19:10 | 25.25650 | 55.35318 | 29 ft | 22 kts | 301° |
| 2026-05-08 19:10 | 25.25729 | 55.35176 | 29 ft | 21 kts | 302° |
| 2026-05-08 19:10 | 25.25801 | 55.35046 | 29 ft | 20 kts | 300° |
| 2026-05-08 19:11 | 25.25879 | 55.34903 | 27 ft | 23 kts | 302° |
| 2026-05-08 19:11 | 25.25970 | 55.34741 | 29 ft | 26 kts | 302° |
| 2026-05-08 19:11 | 25.26073 | 55.34558 | 29 ft | 29 kts | 301° |
| 2026-05-08 19:11 | 25.26183 | 55.34357 | 29 ft | 32 kts | 301° |
| 2026-05-08 19:12 | 25.26278 | 55.34174 | 29 ft | 21 kts | 289° |
| 2026-05-08 19:12 | 25.26259 | 55.34115 | 29 ft | 5 kts | 215° |
| 2026-05-08 19:12 | 25.26201 | 55.34072 | 29 ft | 8 kts | 218° |
| 2026-05-08 19:12 | 25.26199 | 55.34066 | 29 ft | 1 kts | 238° |
| 2026-05-08 19:13 | 25.26198 | 55.34055 | 29 ft | 1 kts | 265° |
| 2026-05-08 19:13 | 25.26202 | 55.34034 | 29 ft | 3 kts | 289° |
| 2026-05-08 19:13 | 25.26220 | 55.33996 | 29 ft | 2 kts | 298° |
| 2026-05-08 19:13 | 25.26226 | 55.33986 | 29 ft | 1 kts | 298° |
| 2026-05-08 19:14 | 25.26228 | 55.33981 | 29 ft | 0 kts | 300° |